Time;durP1;ratioP1;P1;durP2;ratioP2;P2;SDS_P1;SDS_P2;PMS_P1;PMS_P2;Temp;Humidity;BMP_temperature;BMP_pressure;BME280_temperature;BME280_humidity;BME280_pressure;Samples;Min_cycle;Max_cycle;Signal;HPM_P1;HPM_P2
2023/09/24 00:02:20;;;;;;;2.22;2.10;;;;;;;8.07;100.00;96503.66;4967350;28;20038;-67
2023/09/24 00:04:46;;;;;;;2.40;2.20;;;;;;;8.09;100.00;96500.94;4952689;28;20363;-67
2023/09/24 00:07:14;;;;;;;3.88;2.20;;;;;;;8.04;100.00;96493.41;4965679;28;20035;-66
2023/09/24 00:09:40;;;;;;;2.95;2.20;;;;;;;8.08;100.00;96496.66;4971766;28;20080;-67
2023/09/24 00:12:09;;;;;;;2.10;1.88;;;;;;;8.03;100.00;96499.59;4964171;28;20035;-67
2023/09/24 00:14:34;;;;;;;4.07;2.20;;;;;;;8.02;100.00;96496.09;4955880;28;20024;-67
2023/09/24 00:17:00;;;;;;;3.20;2.33;;;;;;;8.04;100.00;96496.00;4969848;28;20152;-67
2023/09/24 00:19:26;;;;;;;3.35;2.50;;;;;;;7.99;100.00;96500.75;4974522;28;20030;-67
2023/09/24 00:21:52;;;;;;;2.50;1.95;;;;;;;7.92;100.00;96502.09;4975019;28;20031;-67
2023/09/24 00:24:19;;;;;;;4.00;2.03;;;;;;;7.94;100.00;96493.19;4975861;28;20038;-67
2023/09/24 00:26:45;;;;;;;2.70;2.50;;;;;;;7.95;100.00;96492.25;4978279;28;20039;-67
2023/09/24 00:29:12;;;;;;;2.10;2.00;;;;;;;7.94;100.00;96495.81;4975459;28;20042;-66
2023/09/24 00:31:38;;;;;;;5.10;2.28;;;;;;;7.90;100.00;96494.34;4974167;28;20491;-66
2023/09/24 00:34:04;;;;;;;2.33;2.17;;;;;;;7.87;100.00;96497.19;4974712;28;20033;-66
2023/09/24 00:36:30;;;;;;;2.85;2.05;;;;;;;7.85;100.00;96496.47;4971767;28;20031;-66
2023/09/24 00:38:56;;;;;;;3.00;2.00;;;;;;;7.83;100.00;96495.69;4973224;28;20034;-66
2023/09/24 00:41:22;;;;;;;1.63;1.52;;;;;;;7.80;100.00;96506.41;4969561;28;20105;-67
2023/09/24 00:43:49;;;;;;;3.55;2.10;;;;;;;7.78;100.00;96497.78;4969461;28;20039;-67
2023/09/24 00:46:16;;;;;;;4.05;2.47;;;;;;;7.80;100.00;96498.53;4962199;28;20058;-67
2023/09/24 00:48:44;;;;;;;2.38;2.10;;;;;;;7.73;100.00;96498.97;4961462;28;20520;-67
2023/09/24 00:51:17;;;;;;;4.10;2.25;;;;;;;7.70;100.00;96500.94;4968908;28;20105;-67
2023/09/24 00:53:45;;;;;;;2.20;2.00;;;;;;;7.68;100.00;96500.19;4964804;28;20057;-67
2023/09/24 00:56:11;;;;;;;3.55;1.98;;;;;;;7.67;100.00;96502.00;4968734;28;20022;-66
2023/09/24 00:58:38;;;;;;;3.65;2.00;;;;;;;7.65;100.00;96496.03;4974496;28;20023;-66
2023/09/24 01:01:04;;;;;;;2.63;2.17;;;;;;;7.66;100.00;96491.59;5005300;28;20019;-66
2023/09/24 01:03:30;;;;;;;4.82;1.98;;;;;;;7.64;100.00;96510.06;4969242;28;20026;-67
2023/09/24 01:05:56;;;;;;;4.63;2.30;;;;;;;7.66;100.00;96502.09;4975087;28;20116;-67
2023/09/24 01:08:24;;;;;;;4.10;2.30;;;;;;;7.64;100.00;96496.97;4972561;28;20435;-66
2023/09/24 01:10:50;;;;;;;3.55;2.28;;;;;;;7.62;100.00;96500.63;4966949;28;20099;-66
2023/09/24 01:13:19;;;;;;;2.08;1.98;;;;;;;7.60;100.00;96504.19;4971731;28;20030;-66
2023/09/24 01:15:48;;;;;;;2.20;2.10;;;;;;;7.58;100.00;96500.84;4968305;28;20030;-66
2023/09/24 01:18:21;;;;;;;2.10;1.80;;;;;;;7.61;100.00;96510.25;4974020;28;20480;-68
2023/09/24 01:20:47;;;;;;;2.00;1.83;;;;;;;7.53;100.00;96508.19;4972691;28;20030;-67
2023/09/24 01:23:14;;;;;;;1.90;1.80;;;;;;;7.57;100.00;96506.16;4974311;28;20102;-68
2023/09/24 01:25:42;;;;;;;3.78;1.90;;;;;;;7.56;100.00;96512.34;4974400;28;20514;-67
2023/09/24 01:28:10;;;;;;;5.03;2.30;;;;;;;7.50;100.00;96516.22;4972884;28;20203;-67
2023/09/24 01:30:38;;;;;;;2.03;1.92;;;;;;;7.52;100.00;96496.03;4973522;28;20050;-66
2023/09/24 01:33:05;;;;;;;1.83;1.73;;;;;;;7.50;100.00;96497.06;4973753;28;20027;-67
2023/09/24 01:35:33;;;;;;;2.03;1.92;;;;;;;7.45;100.00;96495.59;4975652;28;20037;-67
2023/09/24 01:38:06;;;;;;;2.60;2.40;;;;;;;7.48;100.00;96494.53;4974312;28;20067;-67
2023/09/24 01:40:38;;;;;;;2.00;1.90;;;;;;;7.37;100.00;96495.25;4970092;28;20110;-66
2023/09/24 01:43:08;;;;;;;2.33;2.17;;;;;;;7.34;100.00;96494.63;4969467;28;20114;-66
2023/09/24 01:45:40;;;;;;;2.55;2.20;;;;;;;7.35;100.00;96491.06;4968861;28;20074;-68
2023/09/24 01:48:07;;;;;;;2.28;2.08;;;;;;;7.36;100.00;96495.38;4966879;28;20019;-67
2023/09/24 01:50:36;;;;;;;2.53;2.00;;;;;;;7.36;100.00;96496.19;4968577;28;20038;-67
2023/09/24 01:53:05;;;;;;;4.95;2.90;;;;;;;7.35;100.00;96497.13;4970049;28;20030;-67
2023/09/24 01:55:32;;;;;;;1.95;1.85;;;;;;;7.33;100.00;96500.81;4972239;28;20034;-67
2023/09/24 01:58:01;;;;;;;2.20;2.05;;;;;;;7.30;100.00;96504.47;4991540;28;20020;-66
2023/09/24 02:00:28;;;;;;;3.25;1.88;;;;;;;7.28;100.00;96504.53;4998159;28;20030;-67
2023/09/24 02:02:58;;;;;;;2.40;2.00;;;;;;;7.30;100.00;96501.84;4969271;28;20027;-67
2023/09/24 02:05:23;;;;;;;1.40;1.38;;;;;;;7.29;100.00;96495.78;4973907;28;20073;-67
2023/09/24 02:07:49;;;;;;;2.35;2.15;;;;;;;7.29;100.00;96485.31;4974254;28;20105;-67
2023/09/24 02:10:18;;;;;;;2.20;2.10;;;;;;;7.28;100.00;96488.00;4967369;28;20550;-67
2023/09/24 02:12:48;;;;;;;2.53;2.33;;;;;;;7.29;100.00;96487.91;4972053;28;20030;-66
2023/09/24 02:15:20;;;;;;;3.20;2.42;;;;;;;7.23;100.00;96487.47;4969436;28;20109;-66
2023/09/24 02:17:48;;;;;;;2.13;2.03;;;;;;;7.18;100.00;96493.00;4972892;28;20037;-67
2023/09/24 02:20:18;;;;;;;3.08;2.40;;;;;;;7.16;100.00;96492.28;4965122;28;20462;-68
2023/09/24 02:22:46;;;;;;;3.58;2.53;;;;;;;7.12;100.00;96491.63;4959567;28;20039;-66
2023/09/24 02:25:14;;;;;;;3.92;2.30;;;;;;;7.09;100.00;96486.59;4960933;28;20031;-67
2023/09/24 02:27:41;;;;;;;3.30;2.35;;;;;;;7.11;100.00;96476.84;4973536;28;20034;-66
2023/09/24 02:30:13;;;;;;;2.33;2.10;;;;;;;7.10;100.00;96475.19;4972030;28;20371;-66
2023/09/24 02:32:40;;;;;;;1.92;1.83;;;;;;;7.09;100.00;96475.31;4973315;28;20130;-66
2023/09/24 02:35:13;;;;;;;2.17;1.98;;;;;;;6.98;100.00;96465.53;4963244;28;20030;-67
2023/09/24 02:37:44;;;;;;;2.40;1.98;;;;;;;6.96;100.00;96467.38;4972774;28;20070;-66
2023/09/24 02:40:26;;;;;;;6.90;2.40;;;;;;;6.96;100.00;96462.16;4973113;28;20018;-66
2023/09/24 02:42:58;;;;;;;2.22;2.05;;;;;;;6.95;100.00;96460.47;4972503;28;20022;-66
2023/09/24 02:45:26;;;;;;;2.05;1.83;;;;;;;6.91;100.00;96466.84;4973116;28;20765;-66
2023/09/24 02:47:52;;;;;;;3.65;1.88;;;;;;;6.93;100.00;96462.34;4972478;28;20035;-66
2023/09/24 02:50:23;;;;;;;2.45;1.70;;;;;;;6.88;100.00;96460.88;4960738;28;20072;-66
2023/09/24 02:52:53;;;;;;;2.00;1.77;;;;;;;6.89;100.00;96456.50;4961504;28;20506;-67
2023/09/24 02:55:22;;;;;;;1.73;1.63;;;;;;;6.84;100.00;96455.94;4974618;28;20027;-66
2023/09/24 02:57:50;;;;;;;1.80;1.70;;;;;;;6.80;100.00;96468.41;4961798;28;20064;-67
2023/09/24 03:00:20;;;;;;;2.15;1.80;;;;;;;6.80;100.00;96457.94;4972841;28;20022;-66
2023/09/24 03:02:47;;;;;;;5.05;2.13;;;;;;;6.82;100.00;96461.28;4973572;28;20121;-66
2023/09/24 03:05:19;;;;;;;2.95;2.38;;;;;;;6.85;100.00;96457.63;4972752;28;20026;-66
2023/09/24 03:07:45;;;;;;;3.22;2.28;;;;;;;6.86;100.00;96452.28;4972252;28;20478;-66
2023/09/24 03:10:13;;;;;;;3.22;1.85;;;;;;;6.87;100.00;96453.97;4970470;28;20027;-68
2023/09/24 03:12:40;;;;;;;3.35;2.47;;;;;;;6.92;100.00;96453.69;4972388;28;20052;-67
2023/09/24 03:15:12;;;;;;;3.67;1.70;;;;;;;6.91;100.00;96456.38;4960849;28;20089;-67
2023/09/24 03:17:42;;;;;;;4.00;2.00;;;;;;;6.84;100.00;96459.41;4971827;28;20062;-67
2023/09/24 03:20:15;;;;;;;3.55;2.60;;;;;;;6.87;100.00;96451.34;4968144;28;20019;-67
2023/09/24 03:22:54;;;;;;;3.53;1.73;;;;;;;6.86;100.00;96457.53;4966276;28;20357;-67
2023/09/24 03:25:25;;;;;;;2.55;2.20;;;;;;;6.80;100.00;96451.84;5001955;28;20044;-66
2023/09/24 03:27:58;;;;;;;4.25;2.10;;;;;;;6.79;100.00;96451.03;4994766;28;20030;-66
2023/09/24 03:30:24;;;;;;;2.17;1.95;;;;;;;6.79;100.00;96456.25;4954449;28;20035;-67
2023/09/24 03:32:51;;;;;;;2.80;1.90;;;;;;;6.81;100.00;96450.91;4955230;28;20061;-67
2023/09/24 03:35:21;;;;;;;2.72;1.73;;;;;;;6.79;100.00;96448.41;4962009;28;20549;-67
2023/09/24 03:37:50;;;;;;;1.70;1.60;;;;;;;6.71;100.00;96446.28;4957500;28;20051;-67
2023/09/24 03:40:18;;;;;;;5.47;1.83;;;;;;;6.76;100.00;96448.59;4964137;28;20038;-67
2023/09/24 03:42:45;;;;;;;2.45;2.22;;;;;;;6.76;100.00;96446.00;4957645;28;20492;-66
2023/09/24 03:45:13;;;;;;;2.00;1.90;;;;;;;6.72;100.00;96440.09;4954573;28;20110;-66
2023/09/24 03:47:39;;;;;;;4.20;1.88;;;;;;;6.63;100.00;96447.72;4959048;28;20054;-66
2023/09/24 03:50:13;;;;;;;2.85;2.00;;;;;;;6.61;100.00;96457.44;4965799;28;20035;-67
2023/09/24 03:52:51;;;;;;;3.65;2.05;;;;;;;6.59;100.00;96461.00;4975453;28;20075;-67
2023/09/24 03:55:19;;;;;;;2.20;1.75;;;;;;;6.58;100.00;96461.94;4974494;28;20027;-67
2023/09/24 03:57:47;;;;;;;2.10;1.90;;;;;;;6.63;100.00;96458.19;4975805;28;20034;-67
2023/09/24 04:00:18;;;;;;;3.28;1.95;;;;;;;6.58;100.00;96456.69;4962147;28;20039;-66
2023/09/24 04:02:48;;;;;;;4.80;1.90;;;;;;;6.59;100.00;96460.16;4964510;28;20030;-67
2023/09/24 04:05:17;;;;;;;1.77;1.70;;;;;;;6.61;100.00;96466.13;4973976;28;20030;-67
2023/09/24 04:07:49;;;;;;;4.68;1.83;;;;;;;6.61;100.00;96470.53;4974912;28;20109;-66
2023/09/24 04:10:15;;;;;;;2.17;2.05;;;;;;;6.56;100.00;96463.81;4973107;28;20557;-66
2023/09/24 04:12:50;;;;;;;3.67;2.13;;;;;;;6.50;100.00;96464.19;4975887;28;20442;-67
2023/09/24 04:15:20;;;;;;;1.93;1.67;;;;;;;6.46;100.00;96462.72;4973975;28;20400;-66
2023/09/24 04:17:47;;;;;;;2.35;1.90;;;;;;;6.49;100.00;96459.06;4976435;28;20076;-67
2023/09/24 04:20:15;;;;;;;2.45;2.03;;;;;;;6.48;100.00;96463.44;4973517;28;20084;-67
2023/09/24 04:22:44;;;;;;;2.20;2.00;;;;;;;6.51;100.00;96465.88;4974249;28;20031;-66
2023/09/24 04:25:14;;;;;;;2.13;1.92;;;;;;;6.49;100.00;96467.75;4974896;28;20433;-67
2023/09/24 04:27:43;;;;;;;1.83;1.70;;;;;;;6.49;100.00;96466.91;4964049;28;20024;-67
2023/09/24 04:30:15;;;;;;;10.48;6.38;;;;;;;6.41;100.00;96465.63;4962474;28;20029;-67
2023/09/24 04:32:42;;;;;;;4.93;3.60;;;;;;;6.39;100.00;96474.50;4975155;28;20046;-67
2023/09/24 04:35:10;;;;;;;1.98;1.88;;;;;;;6.36;100.00;96469.47;4975896;28;20018;-66
2023/09/24 04:37:36;;;;;;;1.88;1.65;;;;;;;6.31;100.00;96472.38;4972577;28;20022;-67
2023/09/24 04:40:05;;;;;;;4.13;2.85;;;;;;;6.28;100.00;96473.38;4975031;28;20022;-66
2023/09/24 04:42:31;;;;;;;3.75;2.10;;;;;;;6.32;100.00;96473.22;4974174;28;20034;-66
2023/09/24 04:45:00;;;;;;;1.77;1.67;;;;;;;6.28;100.00;96477.78;4975346;28;20027;-66
2023/09/24 04:47:27;;;;;;;1.83;1.73;;;;;;;6.25;100.00;96473.59;4974508;28;20049;-67
2023/09/24 04:49:52;;;;;;;2.92;2.00;;;;;;;6.23;100.00;96488.53;4974935;28;20084;-66
2023/09/24 04:52:19;;;;;;;2.30;1.88;;;;;;;6.23;100.00;96491.16;4974050;28;20027;-66
2023/09/24 04:54:46;;;;;;;1.80;1.70;;;;;;;6.21;100.00;96487.78;4974459;28;20030;-67
2023/09/24 04:57:15;;;;;;;5.47;1.73;;;;;;;6.16;100.00;96484.63;4973276;28;20045;-66
2023/09/24 04:59:41;;;;;;;3.08;1.65;;;;;;;6.18;100.00;96487.97;4973289;28;20117;-66
2023/09/24 05:02:06;;;;;;;5.10;2.10;;;;;;;6.19;100.00;96488.81;4970651;28;20058;-66
2023/09/24 05:04:32;;;;;;;2.45;2.25;;;;;;;6.16;100.00;96493.28;4975952;28;20083;-66
2023/09/24 05:06:58;;;;;;;1.80;1.70;;;;;;;6.16;100.00;96493.28;4964934;28;20030;-66
2023/09/24 05:09:27;;;;;;;2.45;1.77;;;;;;;6.10;100.00;96483.22;4973878;28;20597;-67
2023/09/24 05:11:53;;;;;;;1.80;1.70;;;;;;;6.12;100.00;96483.13;4973739;28;20023;-66
2023/09/24 05:14:19;;;;;;;2.17;1.80;;;;;;;6.12;100.00;96491.81;4972585;28;20033;-66
2023/09/24 05:16:44;;;;;;;1.85;1.70;;;;;;;6.07;100.00;96483.41;4975499;28;20030;-66
2023/09/24 05:19:10;;;;;;;4.15;2.15;;;;;;;6.05;100.00;96487.03;4972300;28;20033;-67
2023/09/24 05:21:36;;;;;;;1.60;1.50;;;;;;;6.02;100.00;96488.91;4960048;28;20037;-67
2023/09/24 05:24:03;;;;;;;2.33;2.22;;;;;;;6.06;100.00;96493.97;4964357;28;20035;-66
2023/09/24 05:26:29;;;;;;;1.98;1.77;;;;;;;6.06;100.00;96507.03;4972199;28;20023;-66
2023/09/24 05:28:57;;;;;;;3.58;2.05;;;;;;;6.07;100.00;96499.09;4966800;28;20023;-67
2023/09/24 05:31:23;;;;;;;3.38;1.80;;;;;;;6.08;100.00;96499.94;4973577;28;20051;-66
2023/09/24 05:33:49;;;;;;;4.10;1.80;;;;;;;6.05;100.00;96497.50;4964992;28;20038;-66
2023/09/24 05:36:15;;;;;;;5.55;2.47;;;;;;;6.02;100.00;96506.41;4962611;28;20023;-67
2023/09/24 05:38:40;;;;;;;7.35;5.25;;;;;;;6.04;100.00;96503.66;4966088;28;20038;-66
2023/09/24 05:41:07;;;;;;;4.50;4.10;;;;;;;6.07;100.00;96498.25;4961354;28;20033;-67
2023/09/24 05:43:33;;;;;;;2.63;2.40;;;;;;;6.07;100.00;96501.72;4966036;28;20026;-66
2023/09/24 05:46:04;;;;;;;4.60;1.83;;;;;;;6.07;100.00;96491.25;4963023;28;20042;-66
2023/09/24 05:48:29;;;;;;;2.90;2.38;;;;;;;6.10;100.00;96493.69;4970977;28;20030;-66
2023/09/24 05:50:55;;;;;;;2.10;2.00;;;;;;;6.09;100.00;96488.56;4964594;28;20035;-66
2023/09/24 05:53:21;;;;;;;2.00;1.90;;;;;;;6.09;100.00;96481.53;4972051;28;20026;-67
2023/09/24 05:55:51;;;;;;;7.88;2.60;;;;;;;6.12;100.00;96486.59;4964843;28;20015;-67
2023/09/24 05:58:17;;;;;;;2.80;2.53;;;;;;;6.14;100.00;96492.56;4966262;28;20023;-66
2023/09/24 06:00:45;;;;;;;3.90;2.33;;;;;;;6.12;100.00;96494.41;4990584;28;20077;-66
2023/09/24 06:03:13;;;;;;;2.42;2.10;;;;;;;6.16;100.00;96495.09;4978630;28;20064;-67
2023/09/24 06:05:39;;;;;;;2.63;2.10;;;;;;;6.24;100.00;96487.59;4967176;28;20069;-66
2023/09/24 06:08:05;;;;;;;2.20;2.10;;;;;;;6.26;100.00;96490.94;4974913;28;20093;-66
2023/09/24 06:10:31;;;;;;;2.00;1.90;;;;;;;6.21;100.00;96497.44;4967722;28;20049;-66
2023/09/24 06:12:57;;;;;;;2.50;2.05;;;;;;;6.23;100.00;96501.59;4965783;28;20034;-66
2023/09/24 06:15:22;;;;;;;2.88;2.00;;;;;;;6.24;100.00;96510.31;4974303;28;20011;-66
2023/09/24 06:17:51;;;;;;;2.33;2.20;;;;;;;6.25;100.00;96510.19;4970375;28;20042;-66
2023/09/24 06:20:17;;;;;;;3.33;2.47;;;;;;;6.29;100.00;96509.06;4966399;28;20023;-66
2023/09/24 06:22:50;;;;;;;2.03;1.92;;;;;;;6.33;100.00;96514.13;4955564;28;20024;-67
2023/09/24 06:25:15;;;;;;;2.10;1.77;;;;;;;6.27;100.00;96513.56;4961935;28;20019;-66
2023/09/24 06:27:41;;;;;;;2.70;2.50;;;;;;;6.25;100.00;96515.41;4973638;28;20031;-66
2023/09/24 06:30:09;;;;;;;2.28;2.17;;;;;;;6.25;100.00;96512.81;4972542;28;20027;-66
2023/09/24 06:32:35;;;;;;;2.22;2.00;;;;;;;6.23;100.00;96517.28;4973863;28;20099;-67
2023/09/24 06:35:00;;;;;;;2.67;2.47;;;;;;;6.27;100.00;96520.56;4974996;28;20019;-67
2023/09/24 06:37:27;;;;;;;2.20;2.00;;;;;;;6.26;100.00;96516.28;4971655;28;20081;-66
2023/09/24 06:39:52;;;;;;;2.65;2.45;;;;;;;6.28;100.00;96517.84;4968484;28;20072;-66
2023/09/24 06:42:18;;;;;;;3.60;2.70;;;;;;;6.36;100.00;96520.00;4967609;28;20027;-67
2023/09/24 06:44:47;;;;;;;8.10;3.05;;;;;;;6.41;100.00;96501.41;4972359;28;20031;-66
2023/09/24 06:47:13;;;;;;;3.70;2.50;;;;;;;6.44;100.00;96506.44;4971688;28;20054;-66
2023/09/24 06:49:38;;;;;;;2.40;2.20;;;;;;;6.47;100.00;96506.25;4973406;28;20571;-66
2023/09/24 06:52:04;;;;;;;2.35;2.15;;;;;;;6.48;100.00;96501.84;4972145;28;20027;-67
2023/09/24 06:54:32;;;;;;;4.43;3.08;;;;;;;6.51;100.00;96504.28;4971960;28;20019;-67
2023/09/24 06:56:59;;;;;;;5.63;2.20;;;;;;;6.55;100.00;96504.00;4971396;28;20100;-67
2023/09/24 06:59:25;;;;;;;2.90;2.70;;;;;;;6.57;100.00;96496.03;4972258;28;20027;-66
2023/09/24 07:01:53;;;;;;;6.10;3.40;;;;;;;6.66;100.00;96497.22;4972716;28;20403;-67
2023/09/24 07:04:19;;;;;;;4.55;2.03;;;;;;;6.67;100.00;96501.53;4972438;28;20050;-67
2023/09/24 07:06:44;;;;;;;2.40;2.20;;;;;;;6.68;100.00;96504.06;4971432;28;20022;-68
2023/09/24 07:09:10;;;;;;;3.40;2.85;;;;;;;6.70;100.00;96510.03;4974016;28;20081;-66
2023/09/24 07:11:38;;;;;;;2.78;2.58;;;;;;;6.71;100.00;96508.22;4971020;28;20034;-67
2023/09/24 07:14:04;;;;;;;3.88;2.08;;;;;;;6.73;100.00;96507.22;4972420;28;20022;-66
2023/09/24 07:16:31;;;;;;;3.47;3.17;;;;;;;6.98;100.00;96499.56;4971740;28;20068;-67
2023/09/24 07:18:58;;;;;;;2.55;2.30;;;;;;;7.38;100.00;96502.16;4972709;28;20088;-67
2023/09/24 07:21:30;;;;;;;2.50;2.30;;;;;;;7.78;100.00;96505.66;4958545;28;20034;-67
2023/09/24 07:23:57;;;;;;;2.30;2.10;;;;;;;8.01;100.00;96502.31;4964213;28;20023;-66
2023/09/24 07:26:23;;;;;;;3.13;2.13;;;;;;;8.22;100.00;96511.44;4962474;28;20035;-67
2023/09/24 07:28:51;;;;;;;2.40;2.28;;;;;;;8.42;100.00;96517.88;4971754;28;20026;-67
2023/09/24 07:31:21;;;;;;;3.47;2.55;;;;;;;8.62;100.00;96523.53;4961938;28;20023;-66
2023/09/24 07:33:47;;;;;;;3.13;2.55;;;;;;;8.92;100.00;96532.78;4965689;28;20088;-66
2023/09/24 07:36:13;;;;;;;2.63;2.25;;;;;;;9.06;100.00;96537.88;4973095;28;20031;-66
2023/09/24 07:38:40;;;;;;;3.17;2.88;;;;;;;9.22;100.00;96542.03;4973736;28;20038;-67
2023/09/24 07:41:08;;;;;;;3.40;3.10;;;;;;;9.33;100.00;96547.31;4970656;28;20023;-66
2023/09/24 07:43:38;;;;;;;2.95;2.28;;;;;;;9.42;100.00;96551.06;4966672;28;20030;-66
2023/09/24 07:46:04;;;;;;;2.40;2.22;;;;;;;9.51;100.00;96555.66;4960857;28;20125;-66
2023/09/24 07:48:31;;;;;;;2.35;2.15;;;;;;;9.64;100.00;96568.72;4962161;28;20100;-66
2023/09/24 07:50:58;;;;;;;2.60;2.40;;;;;;;9.72;100.00;96578.63;4955471;28;20020;-68
2023/09/24 07:53:24;;;;;;;3.70;2.28;;;;;;;9.80;100.00;96583.31;4965739;28;20027;-66
2023/09/24 07:55:57;;;;;;;4.13;2.20;;;;;;;9.79;100.00;96598.28;4967941;28;20503;-68
2023/09/24 07:58:24;;;;;;;2.65;2.45;;;;;;;9.88;100.00;96604.63;4965176;28;20070;-67
2023/09/24 08:00:50;;;;;;;2.60;2.40;;;;;;;10.03;100.00;96613.97;4972245;28;20027;-67
2023/09/24 08:03:17;;;;;;;2.53;2.33;;;;;;;10.12;100.00;96627.41;4961987;28;20427;-67
2023/09/24 08:05:46;;;;;;;2.38;2.15;;;;;;;10.06;100.00;96641.03;4964787;28;20070;-66
2023/09/24 08:08:12;;;;;;;1.98;1.88;;;;;;;10.11;100.00;96650.25;4964703;28;20030;-67
2023/09/24 08:10:38;;;;;;;2.47;2.30;;;;;;;10.19;100.00;96670.72;4960803;28;20049;-67
2023/09/24 08:13:04;;;;;;;2.60;2.40;;;;;;;10.23;100.00;96687.13;4961781;28;20504;-67
2023/09/24 08:15:34;;;;;;;2.47;2.30;;;;;;;10.31;100.00;96685.59;4960800;28;20023;-66
2023/09/24 08:18:00;;;;;;;3.30;3.00;;;;;;;10.41;100.00;96698.09;4966234;28;20037;-68
2023/09/24 08:20:26;;;;;;;2.10;2.00;;;;;;;10.43;100.00;96711.97;4957118;28;20030;-67
2023/09/24 08:22:55;;;;;;;2.10;2.00;;;;;;;10.54;100.00;96726.97;4967446;28;20033;-67
2023/09/24 08:25:21;;;;;;;2.50;2.35;;;;;;;10.53;100.00;96723.50;4975816;28;20121;-67
2023/09/24 08:27:55;;;;;;;2.45;1.90;;;;;;;10.63;100.00;96728.06;4970181;28;20073;-66
2023/09/24 08:30:20;;;;;;;2.20;2.10;;;;;;;10.72;100.00;96730.84;4965519;28;20486;-66
2023/09/24 08:32:49;;;;;;;3.13;2.20;;;;;;;10.85;100.00;96735.16;4970495;28;20231;-67
2023/09/24 08:35:14;;;;;;;2.10;2.00;;;;;;;10.92;100.00;96738.16;4981839;28;20031;-66
2023/09/24 08:37:40;;;;;;;2.53;2.33;;;;;;;11.07;100.00;96739.59;4973675;28;20380;-67
2023/09/24 08:40:09;;;;;;;2.80;2.00;;;;;;;11.15;100.00;96739.00;4972204;28;20034;-67
2023/09/24 08:42:38;;;;;;;4.88;2.20;;;;;;;11.28;100.00;96750.28;4972403;28;20571;-67
2023/09/24 08:45:14;;;;;;;2.13;2.03;;;;;;;11.33;100.00;96747.25;4972884;28;20030;-67
2023/09/24 08:47:45;;;;;;;1.95;1.85;;;;;;;11.30;100.00;96750.16;4971265;28;20062;-66
2023/09/24 08:50:12;;;;;;;2.13;2.00;;;;;;;11.37;100.00;96753.97;4976207;28;20026;-66
2023/09/24 08:52:45;;;;;;;1.95;1.85;;;;;;;11.49;100.00;96749.53;4977351;28;20172;-66
2023/09/24 08:55:13;;;;;;;2.10;1.90;;;;;;;11.43;100.00;96765.84;4971089;28;20027;-67
2023/09/24 08:57:42;;;;;;;2.65;2.13;;;;;;;11.44;100.00;96772.78;4973487;28;20043;-66
2023/09/24 09:00:14;;;;;;;3.33;2.05;;;;;;;11.54;100.00;96770.25;4975605;28;20106;-67
2023/09/24 09:02:41;;;;;;;2.00;1.90;;;;;;;11.64;100.00;96746.63;4982336;28;20026;-67
2023/09/24 09:05:14;;;;;;;2.40;2.20;;;;;;;11.69;100.00;96750.59;4991172;28;20043;-67
2023/09/24 09:07:59;;;;;;;2.55;1.88;;;;;;;11.62;100.00;96744.13;4971833;28;20111;-67
2023/09/24 09:10:27;;;;;;;;;;;;;;;11.63;100.00;96745.81;4967820;28;20149;-67
2023/09/24 09:13:13;;;;;;;2.28;2.05;;;;;;;11.65;100.00;96751.81;4973403;28;19918;-67
2023/09/24 09:15:41;;;;;;;1.65;1.55;;;;;;;11.81;100.00;96755.81;4968507;28;20491;-67
2023/09/24 09:18:23;;;;;;;2.00;1.80;;;;;;;11.79;100.00;96760.38;4966922;28;20034;-67
2023/09/24 09:21:00;;;;;;;1.67;1.58;;;;;;;11.88;100.00;96759.66;4974756;28;20409;-67
2023/09/24 09:23:43;;;;;;;1.70;1.60;;;;;;;11.96;100.00;96757.22;4968389;28;20023;-66
2023/09/24 09:26:09;;;;;;;8.13;1.90;;;;;;;12.02;100.00;96743.56;4967795;28;20026;-67
2023/09/24 09:28:36;;;;;;;4.85;1.90;;;;;;;12.18;100.00;96745.81;4969272;28;20041;-67
2023/09/24 09:31:11;;;;;;;1.60;1.50;;;;;;;12.27;100.00;96757.41;4974045;28;20034;-67
2023/09/24 09:33:45;;;;;;;2.05;1.95;;;;;;;12.34;100.00;96763.00;4974443;28;20054;-67
2023/09/24 09:36:28;;;;;;;2.17;1.98;;;;;;;12.44;100.00;96760.44;4975256;28;20101;-67
2023/09/24 09:39:00;;;;;;;2.40;1.70;;;;;;;12.46;100.00;96750.59;4968114;28;20114;-66
2023/09/24 09:41:26;;;;;;;1.65;1.55;;;;;;;12.50;100.00;96759.94;4969150;28;20555;-67
2023/09/24 09:43:55;;;;;;;3.92;2.10;;;;;;;12.53;100.00;96751.78;4998787;28;20118;-67
2023/09/24 09:46:23;;;;;;;4.18;2.03;;;;;;;12.59;100.00;96751.25;4968138;28;20054;-67
2023/09/24 09:48:56;;;;;;;1.88;1.77;;;;;;;12.73;100.00;96754.53;4973242;28;20454;-67
2023/09/24 09:51:27;;;;;;;1.90;1.80;;;;;;;12.73;100.00;96743.97;4970284;28;20061;-67
2023/09/24 09:53:59;;;;;;;1.92;1.77;;;;;;;12.72;100.00;96737.84;4980979;28;20041;-67
2023/09/24 09:56:25;;;;;;;1.60;1.50;;;;;;;12.81;100.00;96741.50;4966423;28;20097;-67
2023/09/24 09:58:52;;;;;;;1.90;1.80;;;;;;;12.78;100.00;96736.50;4970830;28;20441;-66
2023/09/24 10:01:20;;;;;;;1.90;1.80;;;;;;;12.96;100.00;96733.25;4966710;28;20037;-67
2023/09/24 10:03:50;;;;;;;2.00;1.75;;;;;;;12.99;100.00;96720.59;4969150;28;20026;-67
2023/09/24 10:06:17;;;;;;;2.20;2.00;;;;;;;13.07;100.00;96716.47;4972298;28;20035;-67
2023/09/24 10:08:48;;;;;;;3.25;1.88;;;;;;;13.20;100.00;96718.88;4965718;28;20029;-68
2023/09/24 10:11:32;;;;;;;2.15;2.05;;;;;;;13.18;100.00;96711.94;4968687;28;20486;-67
2023/09/24 10:13:59;;;;;;;1.90;1.80;;;;;;;13.22;100.00;96706.38;4968345;28;20038;-68
2023/09/24 10:16:35;;;;;;;2.20;2.05;;;;;;;13.26;100.00;96697.19;4990648;28;20042;-68
2023/09/24 10:19:09;;;;;;;2.50;1.90;;;;;;;13.33;100.00;96700.97;4967050;28;20384;-68
2023/09/24 10:21:36;;;;;;;1.80;1.70;;;;;;;13.44;100.00;96700.91;4973265;28;20537;-67
2023/09/24 10:24:15;;;;;;;2.03;1.92;;;;;;;13.63;100.00;96696.63;4974669;28;20110;-66
2023/09/24 10:27:05;;;;;;;2.88;1.80;;;;;;;13.62;100.00;96676.44;4970123;28;20106;-68
2023/09/24 10:29:46;;;;;;;2.13;1.90;;;;;;;13.68;100.00;96678.53;4971843;28;20128;-67
2023/09/24 10:32:12;;;;;;;1.70;1.60;;;;;;;13.78;100.00;96669.75;4968091;28;20039;-66
2023/09/24 10:34:59;;;;;;;1.85;1.75;;;;;;;13.87;100.00;96661.00;4972613;28;20027;-66
2023/09/24 10:37:28;;;;;;;1.90;1.70;;;;;;;13.96;100.00;96664.63;4964624;28;20054;-65
2023/09/24 10:40:04;;;;;;;1.80;1.70;;;;;;;13.98;100.00;96658.19;4967258;28;20061;-66
2023/09/24 10:42:34;;;;;;;1.48;1.38;;;;;;;14.00;100.00;96644.84;4975977;28;20126;-65
2023/09/24 10:45:06;;;;;;;1.60;1.50;;;;;;;14.15;100.00;96645.25;4965145;28;20042;-65
2023/09/24 10:47:36;;;;;;;1.95;1.50;;;;;;;14.33;100.00;96645.34;4972049;28;20335;-64
2023/09/24 10:50:10;;;;;;;1.70;1.60;;;;;;;14.26;100.00;96642.44;4964929;28;20414;-65
2023/09/24 10:52:59;;;;;;;2.97;1.80;;;;;;;14.41;100.00;96649.94;4974726;28;20083;-66
2023/09/24 10:55:30;;;;;;;2.53;1.80;;;;;;;14.73;100.00;96641.66;4971122;28;20021;-66
2023/09/24 10:58:00;;;;;;;1.60;1.50;;;;;;;14.82;100.00;96637.31;4968753;28;20070;-65
2023/09/24 11:00:28;;;;;;;1.95;1.80;;;;;;;14.88;100.00;96620.81;4970929;28;20106;-67
2023/09/24 11:03:03;;;;;;;1.70;1.60;;;;;;;15.07;100.00;96632.31;4969957;28;20046;-66
2023/09/24 11:05:49;;;;;;;1.90;1.80;;;;;;;15.30;100.00;96631.91;4970066;28;20023;-66
2023/09/24 11:08:17;;;;;;;3.33;1.70;;;;;;;15.39;100.00;96623.06;4982300;28;20053;-66
2023/09/24 11:10:48;;;;;;;4.53;1.90;;;;;;;15.47;100.00;96614.34;4977906;28;20027;-66
2023/09/24 11:13:15;;;;;;;2.00;1.80;;;;;;;15.51;100.00;96621.03;4970293;28;20019;-65
2023/09/24 11:15:43;;;;;;;2.30;1.75;;;;;;;15.60;100.00;96609.50;4968662;28;20019;-66
2023/09/24 11:18:12;;;;;;;1.70;1.60;;;;;;;15.93;100.00;96603.69;4968220;28;20042;-66
2023/09/24 11:20:38;;;;;;;2.00;1.60;;;;;;;16.13;100.00;96593.72;4969423;28;20320;-69
2023/09/24 11:23:08;;;;;;;1.70;1.60;;;;;;;16.29;100.00;96576.22;4976881;28;20041;-68
2023/09/24 11:25:34;;;;;;;1.95;1.80;;;;;;;16.32;100.00;96568.78;4970119;28;20064;-64
2023/09/24 11:28:02;;;;;;;2.03;1.85;;;;;;;16.49;100.00;96563.56;4959477;28;20035;-66
2023/09/24 11:30:45;;;;;;;1.50;1.40;;;;;;;16.50;100.00;96561.72;4976904;28;20084;-65
2023/09/24 11:33:23;;;;;;;1.85;1.60;;;;;;;16.49;100.00;96558.25;4969681;28;20051;-66
2023/09/24 11:35:51;;;;;;;1.45;1.40;;;;;;;16.35;100.00;96559.66;4973366;28;20022;-65
2023/09/24 11:38:35;;;;;;;1.60;1.50;;;;;;;16.49;100.00;96560.06;4961651;28;20019;-65
2023/09/24 11:41:12;;;;;;;2.58;1.80;;;;;;;16.40;100.00;96565.34;4965376;28;20062;-66